Time;durP1;ratioP1;P1;durP2;ratioP2;P2;SDS_P1;SDS_P2;PMS_P1;PMS_P2;Temp;Humidity;BMP_temperature;BMP_pressure;BME280_temperature;BME280_humidity;BME280_pressure;Samples;Min_cycle;Max_cycle;Signal;HPM_P1;HPM_P2
2022/06/24 00:01:32;;;;;;;;;;;20.70;99.80;;;;;;5056998;28;19928;-77
2022/06/24 00:03:58;;;;;;;;;;;20.70;99.90;;;;;;5092323;28;19920;-76
2022/06/24 00:06:28;;;;;;;;;;;20.50;99.90;;;;;;5059402;28;19931;-77
2022/06/24 00:08:57;;;;;;;;;;;20.50;99.90;;;;;;5091306;28;20380;-77
2022/06/24 00:11:26;;;;;;;;;;;20.50;99.90;;;;;;5042015;28;20023;-77
2022/06/24 00:14:02;;;;;;;;;;;20.40;99.90;;;;;;5063392;28;19921;-77
2022/06/24 00:16:27;;;;;;;;;;;20.40;99.90;;;;;;5038778;28;20019;-77
2022/06/24 00:19:11;;;;;;;;;;;20.40;99.90;;;;;;5078397;28;20023;-77
2022/06/24 00:21:37;;;;;;;;;;;20.30;99.90;;;;;;5091780;28;19920;-77
2022/06/24 00:24:03;;;;;;;;;;;20.30;99.90;;;;;;5058975;28;19925;-77
2022/06/24 00:26:39;;;;;;;;;;;20.30;99.90;;;;;;5059179;28;20281;-77
2022/06/24 00:29:05;;;;;;;;;;;20.30;99.90;;;;;;5058205;28;19920;-77
2022/06/24 00:31:30;;;;;;;;;;;20.20;99.90;;;;;;5056533;28;19982;-77
2022/06/24 00:33:56;;;;;;;;;;;20.20;99.90;;;;;;5055858;28;19928;-77
2022/06/24 00:36:21;;;;;;;;;;;20.10;99.90;;;;;;5055230;28;19932;-77
2022/06/24 00:38:50;;;;;;;;;;;20.00;99.90;;;;;;5083486;28;20015;-76
2022/06/24 00:41:21;;;;;;;;;;;20.00;99.90;;;;;;5058979;28;19924;-77
2022/06/24 00:43:51;;;;;;;;;;;19.90;99.90;;;;;;5058630;28;19970;-76
2022/06/24 00:46:23;;;;;;;;;;;19.80;99.90;;;;;;5042289;28;19920;-77
2022/06/24 00:48:52;;;;;;;;;;;19.80;99.90;;;;;;5074315;28;19921;-77
2022/06/24 00:51:19;;;;;;;;;;;19.70;99.90;;;;;;5058530;28;19928;-77
2022/06/24 00:53:52;;;;;;;;;;;19.70;99.90;;;;;;5057604;28;20411;-76
2022/06/24 00:56:18;;;;;;;;;;;19.60;99.90;;;;;;5041957;28;20293;-76
2022/06/24 00:58:52;;;;;;;;;;;19.50;99.90;;;;;;5056125;28;20406;-77
2022/06/24 01:01:25;;;;;;;;;;;19.50;99.90;;;;;;5054245;28;19928;-77
2022/06/24 01:03:53;;;;;;;;;;;19.50;99.90;;;;;;5040860;28;19921;-76
2022/06/24 01:06:18;;;;;;;;;;;19.40;99.90;;;;;;5058521;28;19943;-76
2022/06/24 01:08:44;;;;;;;;;;;19.30;99.90;;;;;;5052299;28;19920;-76
2022/06/24 01:11:09;;;;;;;;;;;19.20;99.90;;;;;;5055055;28;19921;-76
2022/06/24 01:13:35;;;;;;;;;;;19.10;99.90;;;;;;5054873;28;20423;-76
2022/06/24 01:16:00;;;;;;;;;;;19.00;99.90;;;;;;5054956;28;20262;-76
2022/06/24 01:18:26;;;;;;;;;;;18.90;99.90;;;;;;5055188;28;19924;-76
2022/06/24 01:20:52;;;;;;;;;;;18.80;99.90;;;;;;5045702;28;19924;-77
2022/06/24 01:23:24;;;;;;;;;;;18.70;99.90;;;;;;5041441;28;20078;-77
2022/06/24 01:25:50;;;;;;;;;;;18.70;99.90;;;;;;5041532;28;20269;-77
2022/06/24 01:28:15;;;;;;;;;;;18.70;99.90;;;;;;5056462;28;19928;-77
2022/06/24 01:30:41;;;;;;;;;;;18.70;99.90;;;;;;5057937;28;19920;-77
2022/06/24 01:33:06;;;;;;;;;;;18.70;99.90;;;;;;5041115;28;19920;-77
2022/06/24 01:35:32;;;;;;;;;;;18.60;99.90;;;;;;5057697;28;19920;-77
2022/06/24 01:37:58;;;;;;;;;;;18.60;99.90;;;;;;5056157;28;19924;-77
2022/06/24 01:40:23;;;;;;;;;;;18.60;99.90;;;;;;5054472;28;19921;-77
2022/06/24 01:42:49;;;;;;;;;;;18.60;99.90;;;;;;5054266;28;19975;-77
2022/06/24 01:45:14;;;;;;;;;;;18.40;99.90;;;;;;5056747;28;20022;-77
2022/06/24 01:47:39;;;;;;;;;;;18.50;99.90;;;;;;5057337;28;19927;-77
2022/06/24 01:50:05;;;;;;;;;;;18.40;99.90;;;;;;5038818;28;19920;-77
2022/06/24 01:52:31;;;;;;;;;;;18.40;99.90;;;;;;5037522;28;20013;-77
2022/06/24 01:54:56;;;;;;;;;;;18.40;99.90;;;;;;5056855;28;19928;-77
2022/06/24 01:57:22;;;;;;;;;;;18.40;99.90;;;;;;5039588;28;20379;-76
2022/06/24 01:59:47;;;;;;;;;;;18.40;99.90;;;;;;5073034;28;19920;-76
2022/06/24 02:02:13;;;;;;;;;;;18.30;99.90;;;;;;5047755;28;20307;-76
2022/06/24 02:04:38;;;;;;;;;;;18.20;99.90;;;;;;5053788;28;19968;-76
2022/06/24 02:07:04;;;;;;;;;;;18.30;99.90;;;;;;5053679;28;19927;-76
2022/06/24 02:09:29;;;;;;;;;;;18.30;99.90;;;;;;5052898;28;19924;-76
2022/06/24 02:14:39;;;;;;;;;;;18.30;99.90;;;;;;5083008;28;19932;-76
2022/06/24 02:17:05;;;;;;;;;;;18.30;99.90;;;;;;5056688;28;19924;-77
2022/06/24 02:19:30;;;;;;;;;;;18.20;99.90;;;;;;5036612;28;19920;-76
2022/06/24 02:21:56;;;;;;;;;;;18.30;99.90;;;;;;5072490;28;19921;-76
2022/06/24 02:24:21;;;;;;;;;;;18.10;99.90;;;;;;5090347;28;19943;-76
2022/06/24 02:26:47;;;;;;;;;;;18.00;99.90;;;;;;5056657;28;19959;-76
2022/06/24 02:29:12;;;;;;;;;;;17.90;99.90;;;;;;5038432;28;20007;-76
2022/06/24 02:31:38;;;;;;;;;;;17.80;99.90;;;;;;5056489;28;19967;-76
2022/06/24 02:34:04;;;;;;;;;;;17.80;99.90;;;;;;5055294;28;19921;-76
2022/06/24 02:36:29;;;;;;;;;;;17.70;99.90;;;;;;5036121;28;19994;-76
2022/06/24 02:38:55;;;;;;;;;;;17.70;99.90;;;;;;5053055;28;20324;-76
2022/06/24 02:41:20;;;;;;;;;;;17.70;99.90;;;;;;5071763;28;19959;-76
2022/06/24 02:43:46;;;;;;;;;;;17.60;99.90;;;;;;5044815;28;20360;-76
2022/06/24 02:46:16;;;;;;;;;;;17.50;99.90;;;;;;5031802;28;19956;-76
2022/06/24 02:48:42;;;;;;;;;;;17.50;99.90;;;;;;5039260;28;19928;-76
2022/06/24 02:51:09;;;;;;;;;;;17.50;99.90;;;;;;5036255;28;19921;-76
2022/06/24 02:53:35;;;;;;;;;;;17.50;99.90;;;;;;5052726;28;19920;-76
2022/06/24 02:56:08;;;;;;;;;;;17.60;99.90;;;;;;5056865;28;19920;-76
2022/06/24 02:58:34;;;;;;;;;;;17.60;99.90;;;;;;5071473;28;20285;-76
2022/06/24 03:01:00;;;;;;;;;;;17.80;99.90;;;;;;5055155;28;20018;-76
2022/06/24 03:03:26;;;;;;;;;;;17.80;99.90;;;;;;5058751;28;19927;-76
2022/06/24 03:05:52;;;;;;;;;;;17.70;99.90;;;;;;5055053;28;20003;-76
2022/06/24 03:08:18;;;;;;;;;;;17.70;99.90;;;;;;5054335;28;19920;-76
2022/06/24 03:10:44;;;;;;;;;;;17.60;99.90;;;;;;5055037;28;19924;-76
2022/06/24 03:13:10;;;;;;;;;;;17.60;99.90;;;;;;5049415;28;20385;-76
2022/06/24 03:15:36;;;;;;;;;;;17.60;99.90;;;;;;5072237;28;20329;-76
2022/06/24 03:18:02;;;;;;;;;;;17.70;99.90;;;;;;5088612;28;20065;-76
2022/06/24 03:20:28;;;;;;;;;;;17.80;99.90;;;;;;5054824;28;19921;-76
2022/06/24 03:22:53;;;;;;;;;;;17.90;99.90;;;;;;5036443;28;19973;-76
2022/06/24 03:25:19;;;;;;;;;;;17.90;99.90;;;;;;5055273;28;19924;-76
2022/06/24 03:27:44;;;;;;;;;;;17.90;99.90;;;;;;5054732;28;19927;-76
2022/06/24 03:30:11;;;;;;;;;;;18.00;99.90;;;;;;5055296;28;19924;-76
2022/06/24 03:32:36;;;;;;;;;;;18.00;99.90;;;;;;5054494;28;19922;-76
2022/06/24 03:35:02;;;;;;;;;;;18.10;99.90;;;;;;5054010;28;20007;-76
2022/06/24 03:37:28;;;;;;;;;;;18.10;99.90;;;;;;5034563;28;19925;-76
2022/06/24 03:39:53;;;;;;;;;;;18.10;99.90;;;;;;5045660;28;20328;-76
2022/06/24 03:42:19;;;;;;;;;;;18.20;99.90;;;;;;5077418;28;19983;-76
2022/06/24 03:44:44;;;;;;;;;;;18.10;99.90;;;;;;5022727;28;19964;-77
2022/06/24 03:47:10;;;;;;;;;;;18.10;99.90;;;;;;5052204;28;20376;-76
2022/06/24 03:49:35;;;;;;;;;;;18.10;99.90;;;;;;5051573;28;20322;-76
2022/06/24 03:52:01;;;;;;;;;;;18.20;99.90;;;;;;5064379;28;19971;-76
2022/06/24 03:54:26;;;;;;;;;;;18.30;99.90;;;;;;5047322;28;19920;-76
2022/06/24 03:56:52;;;;;;;;;;;18.30;99.90;;;;;;5067967;28;19929;-76
2022/06/24 03:59:17;;;;;;;;;;;18.30;99.90;;;;;;5043894;28;19928;-76
2022/06/24 04:01:43;;;;;;;;;;;18.30;99.90;;;;;;5067128;28;19932;-76
2022/06/24 04:04:09;;;;;;;;;;;18.30;99.90;;;;;;5044675;28;19929;-76
2022/06/24 04:06:34;;;;;;;;;;;18.30;99.90;;;;;;5049433;28;19920;-76
2022/06/24 04:09:00;;;;;;;;;;;18.40;99.90;;;;;;5068348;28;19921;-76
2022/06/24 04:11:26;;;;;;;;;;;18.30;99.90;;;;;;5051055;28;19973;-76
2022/06/24 04:13:51;;;;;;;;;;;18.30;99.90;;;;;;5048308;28;19928;-76
2022/06/24 04:16:17;;;;;;;;;;;18.30;99.90;;;;;;5068506;28;19921;-76
2022/06/24 04:18:42;;;;;;;;;;;18.30;99.90;;;;;;5084690;28;19933;-76
2022/06/24 04:21:11;;;;;;;;;;;18.30;99.90;;;;;;5083885;28;19920;-76
2022/06/24 04:23:37;;;;;;;;;;;18.40;99.90;;;;;;5044910;28;19921;-76
2022/06/24 04:26:03;;;;;;;;;;;18.50;99.90;;;;;;5047876;28;19931;-76
2022/06/24 04:28:28;;;;;;;;;;;18.50;99.90;;;;;;5084801;28;19975;-76
2022/06/24 04:30:54;;;;;;;;;;;18.50;99.90;;;;;;5067998;28;19928;-76
2022/06/24 04:33:19;;;;;;;;;;;18.50;99.90;;;;;;5032737;28;19928;-76
2022/06/24 04:35:45;;;;;;;;;;;18.50;99.90;;;;;;5051561;28;19920;-76
2022/06/24 04:38:10;;;;;;;;;;;18.50;99.90;;;;;;5042124;28;19971;-76
2022/06/24 04:40:36;;;;;;;;;;;18.50;99.90;;;;;;5035078;28;20377;-76
2022/06/24 04:43:01;;;;;;;;;;;18.50;99.90;;;;;;5044376;28;19924;-76
2022/06/24 04:45:27;;;;;;;;;;;18.50;99.90;;;;;;5035999;28;19952;-76
2022/06/24 04:47:52;;;;;;;;;;;18.50;99.90;;;;;;5042315;28;19928;-76
2022/06/24 04:50:18;;;;;;;;;;;18.50;99.90;;;;;;5041497;28;19966;-76
2022/06/24 04:52:43;;;;;;;;;;;18.60;99.90;;;;;;5052431;28;20011;-76
2022/06/24 04:55:09;;;;;;;;;;;18.70;99.90;;;;;;5042983;28;19921;-76
2022/06/24 04:57:34;;;;;;;;;;;18.70;99.90;;;;;;5087531;28;20299;-76
2022/06/24 05:00:00;;;;;;;;;;;18.70;99.90;;;;;;5057783;28;19928;-76
2022/06/24 05:02:25;;;;;;;;;;;18.80;99.90;;;;;;5056681;28;19921;-76
2022/06/24 05:04:51;;;;;;;;;;;18.90;99.90;;;;;;5056221;28;19956;-76
2022/06/24 05:07:16;;;;;;;;;;;19.00;99.90;;;;;;5057590;28;19920;-76
2022/06/24 05:09:42;;;;;;;;;;;19.00;99.90;;;;;;5090848;28;20328;-76
2022/06/24 05:12:08;;;;;;;;;;;19.00;99.90;;;;;;5056847;28;19920;-76
2022/06/24 05:14:34;;;;;;;;;;;18.90;99.90;;;;;;5065547;28;20364;-76
2022/06/24 05:16:59;;;;;;;;;;;19.00;99.90;;;;;;5057200;28;20122;-76
2022/06/24 05:19:25;;;;;;;;;;;19.10;99.90;;;;;;5091554;28;20054;-76
2022/06/24 05:21:51;;;;;;;;;;;19.10;99.90;;;;;;5072072;28;19974;-76
2022/06/24 05:24:16;;;;;;;;;;;19.20;99.90;;;;;;5035419;28;20346;-76
2022/06/24 05:26:42;;;;;;;;;;;19.30;99.90;;;;;;5054728;28;19927;-76
2022/06/24 05:29:08;;;;;;;;;;;19.30;99.90;;;;;;5056264;28;20016;-76
2022/06/24 05:31:33;;;;;;;;;;;19.30;99.90;;;;;;5057878;28;19968;-76
2022/06/24 05:33:59;;;;;;;;;;;19.40;99.90;;;;;;5052782;28;19970;-76
2022/06/24 05:36:24;;;;;;;;;;;19.50;99.90;;;;;;5020315;28;19928;-76
2022/06/24 05:38:50;;;;;;;;;;;19.60;99.90;;;;;;5066471;28;20007;-76
2022/06/24 05:41:16;;;;;;;;;;;19.70;99.90;;;;;;5055821;28;20341;-76
2022/06/24 05:43:43;;;;;;;;;;;19.80;99.90;;;;;;5052365;28;20373;-76
2022/06/24 05:46:09;;;;;;;;;;;19.80;99.90;;;;;;5055507;28;19920;-76
2022/06/24 05:48:35;;;;;;;;;;;19.80;99.90;;;;;;5039581;28;20300;-76
2022/06/24 05:51:06;;;;;;;;;;;19.90;99.90;;;;;;5053510;28;19920;-76
2022/06/24 05:56:16;;;;;;;;;;;20.00;99.90;;;;;;5053582;28;20339;-76
2022/06/24 05:58:41;;;;;;;;;;;20.20;99.90;;;;;;5035112;28;19921;-76
2022/06/24 06:01:11;;;;;;;;;;;20.30;99.90;;;;;;5046442;28;19967;-75
2022/06/24 06:03:36;;;;;;;;;;;20.20;99.90;;;;;;5076581;28;20372;-69
2022/06/24 06:06:02;;;;;;;;;;;20.10;99.90;;;;;;5077698;28;19921;-69
2022/06/24 06:08:27;;;;;;;;;;;20.00;99.90;;;;;;5054673;28;20369;-68
2022/06/24 06:10:53;;;;;;;;;;;19.80;99.90;;;;;;5065252;28;19927;-69
2022/06/24 06:13:18;;;;;;;;;;;19.80;99.90;;;;;;5089173;28;20385;-69
2022/06/24 06:15:45;;;;;;;;;;;19.70;99.90;;;;;;5052614;28;19964;-70
2022/06/24 06:18:10;;;;;;;;;;;19.90;99.90;;;;;;5038766;28;20389;-70
2022/06/24 06:20:36;;;;;;;;;;;19.90;99.90;;;;;;5058822;28;20047;-70
2022/06/24 06:23:02;;;;;;;;;;;19.90;99.90;;;;;;5047125;28;19920;-71
2022/06/24 06:25:27;;;;;;;;;;;20.00;99.90;;;;;;5051889;28;19927;-71
2022/06/24 06:27:53;;;;;;;;;;;20.00;99.90;;;;;;5059627;28;20381;-71
2022/06/24 06:30:18;;;;;;;;;;;19.90;99.90;;;;;;5072004;28;20415;-71
2022/06/24 06:32:44;;;;;;;;;;;20.00;99.90;;;;;;5088922;28;19921;-71
2022/06/24 06:35:09;;;;;;;;;;;19.90;99.90;;;;;;5056417;28;20285;-72
2022/06/24 06:37:35;;;;;;;;;;;20.00;99.90;;;;;;5053316;28;20007;-72
2022/06/24 06:40:00;;;;;;;;;;;20.10;99.90;;;;;;5088283;28;20406;-72
2022/06/24 06:42:27;;;;;;;;;;;20.10;99.90;;;;;;5054611;28;20277;-72
2022/06/24 06:44:53;;;;;;;;;;;20.20;99.90;;;;;;5040485;28;19931;-72
2022/06/24 06:47:18;;;;;;;;;;;20.20;99.90;;;;;;5086344;28;19920;-72
2022/06/24 06:49:44;;;;;;;;;;;20.20;99.90;;;;;;5085872;28;19932;-72
2022/06/24 06:52:09;;;;;;;;;;;20.20;99.90;;;;;;5034954;28;20407;-72
2022/06/24 06:54:35;;;;;;;;;;;20.20;99.90;;;;;;5059031;28;19924;-72
2022/06/24 06:57:00;;;;;;;;;;;20.30;99.90;;;;;;5075635;28;20014;-72
2022/06/24 06:59:26;;;;;;;;;;;20.30;99.90;;;;;;5055654;28;20033;-72
2022/06/24 07:01:51;;;;;;;;;;;20.30;99.90;;;;;;5051822;28;19927;-72
2022/06/24 07:04:17;;;;;;;;;;;20.20;99.90;;;;;;5053542;28;20011;-72
2022/06/24 07:06:42;;;;;;;;;;;20.20;99.90;;;;;;5037455;28;19928;-71
2022/06/24 07:09:08;;;;;;;;;;;20.20;99.90;;;;;;5070402;28;19920;-71
2022/06/24 07:11:33;;;;;;;;;;;20.20;99.90;;;;;;5054738;28;20418;-71
2022/06/24 07:13:59;;;;;;;;;;;20.10;99.90;;;;;;5070751;28;20396;-71
2022/06/24 07:16:25;;;;;;;;;;;20.10;99.90;;;;;;5052600;28;20323;-71
2022/06/24 07:18:50;;;;;;;;;;;20.10;99.90;;;;;;5039281;28;19921;-71
2022/06/24 07:21:16;;;;;;;;;;;20.00;99.90;;;;;;5076238;28;20433;-67
2022/06/24 07:23:41;;;;;;;;;;;20.10;99.90;;;;;;5055360;28;19999;-67
2022/06/24 07:26:06;;;;;;;;;;;20.10;99.90;;;;;;5035858;28;19974;-72
2022/06/24 07:28:35;;;;;;;;;;;19.90;99.90;;;;;;5063877;28;19971;-72
2022/06/24 07:31:01;;;;;;;;;;;20.00;99.90;;;;;;5065146;28;19924;-72
2022/06/24 07:33:26;;;;;;;;;;;19.90;99.90;;;;;;5054476;28;19943;-72
2022/06/24 07:35:52;;;;;;;;;;;20.00;99.90;;;;;;5049566;28;19920;-71
2022/06/24 07:38:18;;;;;;;;;;;20.10;99.90;;;;;;5060805;28;19924;-72
2022/06/24 07:40:43;;;;;;;;;;;20.20;99.90;;;;;;5054036;28;19946;-72
2022/06/24 07:43:09;;;;;;;;;;;20.20;99.90;;;;;;5052729;28;20416;-72
2022/06/24 07:45:35;;;;;;;;;;;20.20;99.90;;;;;;5053421;28;19943;-72
2022/06/24 07:48:01;;;;;;;;;;;20.20;99.90;;;;;;5054543;28;20388;-72
2022/06/24 07:50:26;;;;;;;;;;;20.20;99.90;;;;;;5054413;28;20047;-71
2022/06/24 07:52:52;;;;;;;;;;;20.20;99.90;;;;;;5069509;28;19920;-72
2022/06/24 07:58:01;;;;;;;;;;;20.30;99.90;;;;;;5054008;28;20304;-71
2022/06/24 08:00:27;;;;;;;;;;;20.40;99.90;;;;;;5054564;28;19921;-71
2022/06/24 08:02:53;;;;;;;;;;;20.30;99.90;;;;;;5038573;28;20331;-71
2022/06/24 08:05:18;;;;;;;;;;;20.20;99.90;;;;;;5023825;28;19928;-72
2022/06/24 08:07:44;;;;;;;;;;;20.00;99.90;;;;;;5051702;28;19924;-72
2022/06/24 08:10:09;;;;;;;;;;;20.10;99.90;;;;;;5033430;28;20023;-71
2022/06/24 08:12:35;;;;;;;;;;;20.10;99.90;;;;;;5053139;28;19920;-71
2022/06/24 08:15:00;;;;;;;;;;;20.10;99.90;;;;;;5051634;28;19920;-72
2022/06/24 08:17:26;;;;;;;;;;;20.10;99.90;;;;;;5050650;28;19950;-71
2022/06/24 08:19:51;;;;;;;;;;;20.20;99.90;;;;;;5040216;28;19920;-72
2022/06/24 08:22:17;;;;;;;;;;;20.20;99.90;;;;;;5057322;28;20281;-71
2022/06/24 08:24:42;;;;;;;;;;;20.20;99.90;;;;;;5058133;28;20323;-72
2022/06/24 08:27:08;;;;;;;;;;;20.30;99.90;;;;;;5032448;28;20011;-72
2022/06/24 08:29:33;;;;;;;;;;;20.30;99.90;;;;;;5057504;28;19974;-72
2022/06/24 08:31:59;;;;;;;;;;;20.30;99.90;;;;;;5061337;28;19921;-72
2022/06/24 08:34:24;;;;;;;;;;;20.40;99.90;;;;;;5061632;28;19920;-72
2022/06/24 08:36:50;;;;;;;;;;;20.50;99.90;;;;;;5100676;28;19930;-72
2022/06/24 08:39:15;;;;;;;;;;;20.40;99.90;;;;;;5090716;28;19927;-72
2022/06/24 08:41:45;;;;;;;;;;;20.40;99.90;;;;;;5075513;28;19943;-72
2022/06/24 08:44:11;;;;;;;;;;;20.60;99.90;;;;;;5039233;28;19920;-72
2022/06/24 08:46:38;;;;;;;;;;;20.60;99.90;;;;;;5036896;28;19920;-72
2022/06/24 08:49:04;;;;;;;;;;;20.70;99.90;;;;;;5074144;28;19959;-72
2022/06/24 08:51:30;;;;;;;;;;;20.60;99.90;;;;;;5057819;28;19963;-71
2022/06/24 08:54:00;;;;;;;;;;;20.60;99.90;;;;;;5088369;28;20386;-71
2022/06/24 08:56:26;;;;;;;;;;;20.50;99.90;;;;;;5057495;28;20365;-71
2022/06/24 08:58:52;;;;;;;;;;;20.50;99.90;;;;;;5073977;28;19920;-70
2022/06/24 09:01:18;;;;;;;;;;;20.60;99.90;;;;;;5074277;28;19921;-70
2022/06/24 09:03:44;;;;;;;;;;;20.60;99.90;;;;;;5090659;28;19931;-70
2022/06/24 09:06:10;;;;;;;;;;;20.60;99.90;;;;;;5045385;28;19928;-70
2022/06/24 09:08:36;;;;;;;;;;;20.60;99.90;;;;;;5036412;28;19928;-70
2022/06/24 09:11:06;;;;;;;;;;;20.50;99.90;;;;;;5040724;28;19920;-70
2022/06/24 09:13:40;;;;;;;;;;;20.60;99.90;;;;;;5026704;28;19928;-70
2022/06/24 09:16:09;;;;;;;;;;;20.60;99.90;;;;;;5061536;28;19920;-70
2022/06/24 09:18:35;;;;;;;;;;;20.60;99.90;;;;;;5053212;28;20443;-70
2022/06/24 09:21:00;;;;;;;;;;;20.60;99.90;;;;;;5056307;28;20008;-70
2022/06/24 09:23:26;;;;;;;;;;;20.50;99.90;;;;;;5057730;28;19920;-69
2022/06/24 09:25:57;;;;;;;;;;;20.60;99.90;;;;;;5054384;28;19920;-69
2022/06/24 09:28:29;;;;;;;;;;;20.60;99.90;;;;;;5073672;28;20434;-69
2022/06/24 09:31:05;;;;;;;;;;;20.60;99.90;;;;;;5049662;28;20380;-70
2022/06/24 09:33:41;;;;;;;;;;;20.60;99.90;;;;;;5034195;28;20356;-70
2022/06/24 09:36:07;;;;;;;;;;;20.60;99.90;;;;;;5081976;28;20365;-70
2022/06/24 09:38:51;;;;;;;;;;;20.60;99.90;;;;;;5079696;28;20086;-70
2022/06/24 09:41:16;;;;;;;;;;;20.50;99.90;;;;;;5053716;28;19921;-70
2022/06/24 09:43:42;;;;;;;;;;;20.40;99.90;;;;;;5052461;28;20403;-70
2022/06/24 09:46:15;;;;;;;;;;;20.50;99.90;;;;;;5052343;28;20349;-70
2022/06/24 09:48:41;;;;;;;;;;;20.40;99.90;;;;;;5053237;28;19960;-70
2022/06/24 09:51:07;;;;;;;;;;;20.40;99.90;;;;;;5053598;28;19967;-70
2022/06/24 09:53:36;;;;;;;;;;;20.30;99.90;;;;;;5049903;28;19920;-70
2022/06/24 09:56:02;;;;;;;;;;;20.30;99.90;;;;;;5053794;28;19921;-70
2022/06/24 09:58:28;;;;;;;;;;;20.20;99.90;;;;;;5053177;28;20297;-70
2022/06/24 10:00:54;;;;;;;;;;;20.20;99.90;;;;;;5053707;28;19928;-70
2022/06/24 10:03:20;;;;;;;;;;;20.20;99.90;;;;;;5053025;28;19929;-70
2022/06/24 10:05:46;;;;;;;;;;;20.20;99.90;;;;;;5050592;28;19975;-70
2022/06/24 10:08:16;;;;;;;;;;;20.10;99.90;;;;;;5042526;28;19921;-70
2022/06/24 10:10:46;;;;;;;;;;;20.10;99.90;;;;;;5022271;28;19921;-70
2022/06/24 10:13:24;;;;;;;;;;;20.00;99.90;;;;;;5077092;28;19927;-70
2022/06/24 10:15:50;;;;;;;;;;;19.90;99.90;;;;;;5069010;28;19971;-69
2022/06/24 10:18:19;;;;;;;;;;;19.90;99.90;;;;;;5084373;28;20026;-68
2022/06/24 10:20:45;;;;;;;;;;;19.70;99.90;;;;;;5053178;28;20392;-68
2022/06/24 10:23:30;;;;;;;;;;;19.70;99.90;;;;;;5084374;28;19921;-69
2022/06/24 10:25:55;;;;;;;;;;;19.60;99.90;;;;;;5049345;28;19920;-70
2022/06/24 10:28:20;;;;;;;;;;;19.60;99.90;;;;;;5066202;28;19920;-70
2022/06/24 10:30:46;;;;;;;;;;;19.60;99.90;;;;;;5086286;28;19932;-70
2022/06/24 10:33:12;;;;;;;;;;;19.60;99.90;;;;;;5060140;28;20024;-70
2022/06/24 10:35:53;;;;;;;;;;;19.60;99.90;;;;;;5033642;28;19974;-69
2022/06/24 10:38:19;;;;;;;;;;;19.60;99.90;;;;;;5054642;28;19925;-70
2022/06/24 10:40:45;;;;;;;;;;;19.60;99.90;;;;;;5089294;28;19926;-70
2022/06/24 10:43:11;;;;;;;;;;;19.50;99.90;;;;;;5091839;28;20295;-70
2022/06/24 10:45:37;;;;;;;;;;;19.50;99.90;;;;;;5054552;28;19927;-70
2022/06/24 10:48:03;;;;;;;;;;;19.40;99.90;;;;;;5052308;28;19928;-70
2022/06/24 10:50:28;;;;;;;;;;;19.20;99.90;;;;;;5085649;28;20293;-70
2022/06/24 10:53:00;;;;;;;;;;;19.10;99.90;;;;;;5037968;28;19920;-70
2022/06/24 10:55:30;;;;;;;;;;;19.00;99.90;;;;;;5052999;28;19960;-70
2022/06/24 10:57:56;;;;;;;;;;;19.00;99.90;;;;;;5054914;28;19925;-70
2022/06/24 11:00:27;;;;;;;;;;;18.90;99.90;;;;;;5028218;28;20333;-70
2022/06/24 11:03:02;;;;;;;;;;;18.80;99.90;;;;;;5053911;28;20385;-70
2022/06/24 11:05:30;;;;;;;;;;;18.80;99.90;;;;;;5050659;28;20075;-70
2022/06/24 11:07:56;;;;;;;;;;;18.80;99.90;;;;;;5074875;28;19920;-70
2022/06/24 11:10:26;;;;;;;;;;;18.80;99.90;;;;;;5049157;28;19970;-70
2022/06/24 11:12:58;;;;;;;;;;;18.70;99.90;;;;;;5052810;28;19974;-70
2022/06/24 11:15:45;;;;;;;;;;;18.80;99.90;;;;;;5065801;28;19928;-71
2022/06/24 11:18:11;;;;;;;;;;;18.70;99.90;;;;;;5050956;28;19978;-71
2022/06/24 11:20:41;;;;;;;;;;;18.70;99.90;;;;;;5057946;28;19921;-71
2022/06/24 11:23:11;;;;;;;;;;;18.70;99.90;;;;;;5080434;28;19931;-71
2022/06/24 11:25:38;;;;;;;;;;;18.70;99.90;;;;;;5056673;28;19924;-70
2022/06/24 11:28:04;;;;;;;;;;;18.60;99.90;;;;;;5051361;28;19921;-71
2022/06/24 11:30:29;;;;;;;;;;;18.70;99.90;;;;;;5068509;28;19936;-71
2022/06/24 11:32:56;;;;;;;;;;;18.60;99.90;;;;;;5073128;28;19927;-71
2022/06/24 11:35:22;;;;;;;;;;;18.70;99.90;;;;;;5037812;28;20258;-71
2022/06/24 11:37:48;;;;;;;;;;;18.70;99.90;;;;;;5036344;28;19935;-71
2022/06/24 11:40:21;;;;;;;;;;;18.90;99.90;;;;;;5049319;28;20289;-70
2022/06/24 11:42:46;;;;;;;;;;;18.90;99.90;;;;;;5026571;28;19944;-70
2022/06/24 11:45:12;;;;;;;;;;;18.90;99.90;;;;;;5027966;28;19921;-70
2022/06/24 11:47:37;;;;;;;;;;;18.90;99.90;;;;;;5053233;28;20292;-71
2022/06/24 11:50:03;;;;;;;;;;;19.00;99.90;;;;;;5057745;28;20019;-70
2022/06/24 11:52:29;;;;;;;;;;;19.00;99.90;;;;;;5057233;28;19936;-71
2022/06/24 11:54:54;;;;;;;;;;;19.00;99.90;;;;;;5058411;28;19920;-70
2022/06/24 11:57:21;;;;;;;;;;;19.10;99.90;;;;;;5057166;28;19979;-71
2022/06/24 11:59:47;;;;;;;;;;;19.20;99.90;;;;;;5056779;28;20057;-71
2022/06/24 12:02:14;;;;;;;;;;;19.20;99.90;;;;;;5041839;28;19994;-71
2022/06/24 12:04:40;;;;;;;;;;;19.30;99.90;;;;;;5057344;28;20296;-71
2022/06/24 12:07:06;;;;;;;;;;;19.40;99.90;;;;;;5056754;28;20295;-71
2022/06/24 12:09:32;;;;;;;;;;;19.40;99.90;;;;;;5058969;28;19927;-71
2022/06/24 12:12:07;;;;;;;;;;;19.40;99.90;;;;;;5087393;28;19999;-71
2022/06/24 12:14:33;;;;;;;;;;;19.40;99.90;;;;;;5045818;28;20300;-71
2022/06/24 12:17:03;;;;;;;;;;;19.40;99.90;;;;;;5064590;28;19931;-71
2022/06/24 12:19:34;;;;;;;;;;;19.40;99.90;;;;;;5046609;28;19924;-72
2022/06/24 12:22:04;;;;;;;;;;;19.40;99.90;;;;;;5088238;28;20289;-71
2022/06/24 12:24:29;;;;;;;;;;;19.40;99.90;;;;;;5037494;28;19924;-71
2022/06/24 12:26:56;;;;;;;;;;;19.50;99.90;;;;;;5044362;28;19928;-71
2022/06/24 12:29:27;;;;;;;;;;;19.60;99.90;;;;;;5086119;28;19920;-71
2022/06/24 12:31:53;;;;;;;;;;;19.60;99.90;;;;;;5050312;28;20038;-71
2022/06/24 12:34:25;;;;;;;;;;;19.80;99.90;;;;;;5065256;28;19934;-71
2022/06/24 12:36:55;;;;;;;;;;;19.80;99.90;;;;;;5049427;28;19924;-71
2022/06/24 12:39:26;;;;;;;;;;;19.90;99.90;;;;;;5090197;28;19940;-71
2022/06/24 12:41:51;;;;;;;;;;;20.00;99.90;;;;;;5070953;28;19927;-71
2022/06/24 12:44:17;;;;;;;;;;;20.10;99.90;;;;;;5040279;28;19921;-71
2022/06/24 12:52:43;;;;;;;;;;;20.20;99.90;;;;;;5075808;28;19920;-71
2022/06/24 12:55:11;;;;;;;;;;;20.40;99.90;;;;;;5057804;28;19987;-71
2022/06/24 12:57:37;;;;;;;;;;;20.30;99.90;;;;;;5085941;28;19928;-71
2022/06/24 13:00:07;;;;;;;;;;;20.40;99.90;;;;;;5079401;28;19931;-71
2022/06/24 13:02:33;;;;;;;;;;;20.40;99.90;;;;;;5108531;28;19925;-71
2022/06/24 13:04:58;;;;;;;;;;;20.50;99.90;;;;;;5052026;28;19927;-71
2022/06/24 13:07:23;;;;;;;;;;;20.60;99.90;;;;;;5057700;28;20010;-71
2022/06/24 13:09:49;;;;;;;;;;;20.50;99.90;;;;;;5091371;28;19920;-71
2022/06/24 13:12:15;;;;;;;;;;;20.60;99.90;;;;;;5076916;28;20440;-71
2022/06/24 13:14:40;;;;;;;;;;;20.60;99.90;;;;;;5068369;28;19928;-71
2022/06/24 13:17:06;;;;;;;;;;;20.70;99.90;;;;;;5075279;28;19925;-71
2022/06/24 13:19:31;;;;;;;;;;;20.80;99.90;;;;;;5068172;28;19928;-71
2022/06/24 13:21:57;;;;;;;;;;;20.80;99.90;;;;;;5039489;28;20016;-71
2022/06/24 13:24:22;;;;;;;;;;;20.90;99.90;;;;;;5053862;28;19924;-71
2022/06/24 13:26:48;;;;;;;;;;;21.00;99.90;;;;;;5048931;28;19921;-71
2022/06/24 13:29:13;;;;;;;;;;;21.00;99.90;;;;;;5056291;28;19927;-71
2022/06/24 13:31:39;;;;;;;;;;;20.90;99.90;;;;;;5065560;28;19921;-71
2022/06/24 13:34:04;;;;;;;;;;;20.90;99.90;;;;;;5076407;28;19921;-71
2022/06/24 13:36:30;;;;;;;;;;;21.00;99.90;;;;;;5039298;28;20385;-70
2022/06/24 13:38:55;;;;;;;;;;;21.00;99.90;;;;;;5036859;28;20007;-71
2022/06/24 13:41:21;;;;;;;;;;;21.10;99.90;;;;;;5021126;28;19921;-71
2022/06/24 13:43:46;;;;;;;;;;;21.10;99.90;;;;;;5021311;28;20007;-71
2022/06/24 13:46:12;;;;;;;;;;;21.20;99.90;;;;;;5048340;28;19924;-71
2022/06/24 13:48:37;;;;;;;;;;;21.20;99.90;;;;;;5066544;28;19920;-71
2022/06/24 13:51:03;;;;;;;;;;;21.20;99.90;;;;;;5071408;28;20358;-71
2022/06/24 13:53:28;;;;;;;;;;;21.20;99.90;;;;;;5067653;28;19928;-71
2022/06/24 13:55:54;;;;;;;;;;;21.20;99.90;;;;;;5057960;28;19931;-71
2022/06/24 13:58:19;;;;;;;;;;;21.10;99.90;;;;;;5088201;28;20335;-71
2022/06/24 14:00:45;;;;;;;;;;;21.10;99.90;;;;;;5049998;28;20007;-71
2022/06/24 14:03:10;;;;;;;;;;;21.20;99.90;;;;;;5031931;28;20003;-71
2022/06/24 14:05:36;;;;;;;;;;;21.30;99.90;;;;;;5072328;28;19960;-71
2022/06/24 14:08:02;;;;;;;;;;;21.30;99.90;;;;;;5039641;28;20305;-71
2022/06/24 14:10:27;;;;;;;;;;;21.40;99.90;;;;;;5068761;28;19966;-71
2022/06/24 14:12:54;;;;;;;;;;;21.40;99.90;;;;;;5077669;28;19939;-71
2022/06/24 14:15:19;;;;;;;;;;;21.40;99.90;;;;;;5050896;28;19920;-71
2022/06/24 14:17:45;;;;;;;;;;;21.30;99.90;;;;;;5052567;28;19932;-71
2022/06/24 14:20:11;;;;;;;;;;;21.40;99.90;;;;;;5065759;28;19956;-71
2022/06/24 14:22:37;;;;;;;;;;;21.40;99.90;;;;;;5044212;28;19920;-71
2022/06/24 14:25:03;;;;;;;;;;;21.50;99.90;;;;;;5088254;28;20014;-71
2022/06/24 14:27:28;;;;;;;;;;;21.50;99.90;;;;;;5078185;28;19920;-71